To NAV CANADA Home Page Login to a new session Search on AWWS site Feedback and Comments Disclaimer Vers la page française équivalente Tips FAQ What's new on the site To the Forecasts and Observations / NOTAM section To "File a Flight Plan" website Publications and other links Update of the User's profile FIC Telephone Numbers My Weather Data Folder Route Weather Data Regional Weather Data Local Weather Data To the Forecasts and Observations / NOTAM section
Request Generated 08/02/2015 at 06:17:07 UTC . Weather information available at that time is displayed.

METAR/TAF

HIGH LEVEL/AB    (show WxCam)

METAR CYOJ 020600Z AUTO 36003KT 9SM OVC095 15/11 A2996 RMK SLP150
DENSITY ALT 1300FT=
METAR CYOJ 020500Z AUTO VRB02KT 9SM CLR 15/11 A2996 RMK SLP152
DENSITY ALT 1300FT=
METAR CYOJ 020400Z 35002KT 15SM SCT140 BKN160 18/11 A2996 RMK AC3AC3
LAST STFD OBS/NEXT 021300 UTC SLP152 DENSITY ALT 1600FT=

TAF CYOJ 020038Z 0201/0213 VRB03KT P6SM SCT050 BKN100 TEMPO 0201/0204
P6SM -SHRA BKN050 PROB30 0201/0204 5SM TSRA BKN050CB
FM020400 VRB03KT P6SM FEW030 OVC050 TEMPO 0204/0213 P6SM -SHRA
FEW020 OVC040
RMK NXT FCST BY 020700Z=
Your time UTC time
Weather data provided by Environment Canada and NAV CANADA